Time;durP1;ratioP1;P1;durP2;ratioP2;P2;SDS_P1;SDS_P2;PMS_P1;PMS_P2;Temp;Humidity;BMP_temperature;BMP_pressure;BME280_temperature;BME280_humidity;BME280_pressure;Samples;Min_cycle;Max_cycle;Signal;HPM_P1;HPM_P2
2022/01/01 00:01:31;;;;;;;9.48;5.05;;;;;;;;;;5116066;27;20038;-73
2022/01/01 00:03:57;;;;;;;12.13;5.63;;;;;;;;;;5113808;27;20038;-73
2022/01/01 00:06:24;;;;;;;10.15;6.18;;;;;;;;;;5113775;27;20037;-73
2022/01/01 00:08:50;;;;;;;8.68;4.68;;;;;;;;;;5111591;27;20024;-73
2022/01/01 00:11:16;;;;;;;9.50;5.22;;;;;;;;;;5113466;27;20489;-73
2022/01/01 00:13:43;;;;;;;9.80;5.18;;;;;;;;;;5116693;27;20024;-73
2022/01/01 00:16:09;;;;;;;10.50;4.65;;;;;;;;;;5113672;27;20038;-73
2022/01/01 00:18:36;;;;;;;9.40;4.70;;;;;;;;;;5113728;27;20021;-73
2022/01/01 00:21:03;;;;;;;8.50;5.15;;;;;;;;;;5112998;27;20023;-73
2022/01/01 00:23:30;;;;;;;9.63;4.70;;;;;;;;;;5110381;28;20028;-73
2022/01/01 00:25:56;;;;;;;10.25;4.90;;;;;;;;;;5116443;27;20038;-73
2022/01/01 00:28:22;;;;;;;5.78;3.90;;;;;;;;;;5113188;27;20019;-73
2022/01/01 00:30:49;;;;;;;10.68;6.22;;;;;;;;;;5113500;27;20027;-73
2022/01/01 00:33:15;;;;;;;9.57;5.28;;;;;;;;;;5113718;27;20026;-73
2022/01/01 00:35:41;;;;;;;8.73;5.07;;;;;;;;;;5108809;28;20020;-73
2022/01/01 00:38:08;;;;;;;11.45;5.07;;;;;;;;;;5115662;27;20031;-73
2022/01/01 00:40:34;;;;;;;7.63;4.20;;;;;;;;;;5114012;27;20466;-73
2022/01/01 00:43:01;;;;;;;8.45;4.80;;;;;;;;;;5113245;27;20026;-73
2022/01/01 00:45:28;;;;;;;7.72;4.55;;;;;;;;;;5113093;27;20050;-73
2022/01/01 00:47:55;;;;;;;6.25;4.00;;;;;;;;;;5108862;28;20024;-73
2022/01/01 00:50:21;;;;;;;7.00;3.83;;;;;;;;;;5092033;28;20027;-73
2022/01/01 00:52:50;;;;;;;5.57;3.47;;;;;;;;;;5077176;28;20027;-73
2022/01/01 00:55:16;;;;;;;7.45;3.60;;;;;;;;;;5108535;28;20028;-73
2022/01/01 00:57:43;;;;;;;8.40;3.92;;;;;;;;;;5095657;28;20031;-73
2022/01/01 01:00:09;;;;;;;8.02;3.92;;;;;;;;;;5115396;28;20023;-73
2022/01/01 01:02:36;;;;;;;5.07;3.40;;;;;;;;;;5115128;28;20076;-73
2022/01/01 01:05:02;;;;;;;5.32;3.72;;;;;;;;;;5119138;28;20038;-73
2022/01/01 01:07:28;;;;;;;7.82;3.80;;;;;;;;;;5115408;28;20031;-73
2022/01/01 01:09:54;;;;;;;9.23;3.30;;;;;;;;;;5115247;28;20034;-73
2022/01/01 01:12:25;;;;;;;5.18;3.22;;;;;;;;;;5115391;28;20020;-73
2022/01/01 01:14:52;;;;;;;8.05;3.65;;;;;;;;;;5115528;28;20024;-73
2022/01/01 01:17:19;;;;;;;7.80;3.60;;;;;;;;;;5117515;28;20076;-73
2022/01/01 01:19:46;;;;;;;7.68;3.78;;;;;;;;;;5116728;28;20097;-73
2022/01/01 01:22:12;;;;;;;8.43;3.70;;;;;;;;;;5115198;28;20016;-73
2022/01/01 01:24:39;;;;;;;6.55;3.78;;;;;;;;;;5115075;28;20057;-73
2022/01/01 01:27:06;;;;;;;6.82;3.50;;;;;;;;;;5115101;28;20024;-72
2022/01/01 01:29:37;;;;;;;4.82;3.47;;;;;;;;;;5099485;28;20032;-72
2022/01/01 01:32:04;;;;;;;7.68;3.42;;;;;;;;;;5114659;28;20030;-73
2022/01/01 01:34:30;;;;;;;5.82;3.78;;;;;;;;;;5115341;28;20042;-73
2022/01/01 01:36:56;;;;;;;7.68;4.07;;;;;;;;;;5115029;28;20016;-72
2022/01/01 01:39:23;;;;;;;7.97;3.65;;;;;;;;;;5115032;28;20032;-73
2022/01/01 01:41:51;;;;;;;9.10;3.63;;;;;;;;;;5114755;28;20016;-73
2022/01/01 01:44:43;;;;;;;12.80;5.15;;;;;;;;;;5117245;28;20020;-73
2022/01/01 01:47:17;;;;;;;7.10;4.20;;;;;;;;;;5129419;27;20039;-73
2022/01/01 01:49:45;;;;;;;7.53;4.20;;;;;;;;;;5120680;27;20035;-73
2022/01/01 01:52:12;;;;;;;8.73;3.90;;;;;;;;;;5100918;28;20032;-73
2022/01/01 01:54:40;;;;;;;7.53;4.00;;;;;;;;;;5118702;27;20039;-73
2022/01/01 01:57:07;;;;;;;7.35;4.80;;;;;;;;;;5119236;27;20027;-73
2022/01/01 01:59:33;;;;;;;12.70;4.40;;;;;;;;;;5099384;28;20026;-72
2022/01/01 02:02:00;;;;;;;7.03;4.15;;;;;;;;;;5122694;27;20060;-73
2022/01/01 02:04:26;;;;;;;7.57;4.53;;;;;;;;;;5118908;27;20061;-73
2022/01/01 02:06:52;;;;;;;6.47;3.85;;;;;;;;;;5119172;27;20015;-73
2022/01/01 02:09:19;;;;;;;7.78;3.38;;;;;;;;;;5115532;27;20095;-73
2022/01/01 02:11:46;;;;;;;8.50;3.88;;;;;;;;;;5113098;27;20016;-73
2022/01/01 02:19:20;;;;;;;4.57;3.10;;;;;;;;;;5115913;27;20019;-73
2022/01/01 02:21:47;;;;;;;6.10;3.27;;;;;;;;;;5115722;27;20409;-73
2022/01/01 02:24:13;;;;;;;4.90;2.78;;;;;;;;;;5115510;27;20035;-73
2022/01/01 02:26:39;;;;;;;5.80;3.35;;;;;;;;;;5112275;27;20035;-73
2022/01/01 02:29:06;;;;;;;6.18;3.47;;;;;;;;;;5118004;27;20355;-73
2022/01/01 02:31:33;;;;;;;5.70;3.00;;;;;;;;;;5116331;27;20394;-73
2022/01/01 02:34:10;;;;;;;5.63;3.72;;;;;;;;;;5115719;27;20023;-73
2022/01/01 02:36:36;;;;;;;8.15;4.68;;;;;;;;;;5115547;27;20023;-73
2022/01/01 02:39:10;;;;;;;7.75;3.35;;;;;;;;;;5114867;27;20023;-73
2022/01/01 02:41:36;;;;;;;7.07;3.67;;;;;;;;;;5095687;28;20503;-72
2022/01/01 02:44:05;;;;;;;4.28;3.00;;;;;;;;;;5118406;27;20508;-73
2022/01/01 02:46:32;;;;;;;6.65;3.10;;;;;;;;;;5126094;27;20051;-73
2022/01/01 02:48:58;;;;;;;7.43;3.45;;;;;;;;;;5121128;27;20504;-73
2022/01/01 02:51:25;;;;;;;4.88;2.83;;;;;;;;;;5115561;27;20045;-73
2022/01/01 02:53:52;;;;;;;4.15;3.10;;;;;;;;;;5112870;27;20022;-73
2022/01/01 02:56:18;;;;;;;4.95;2.80;;;;;;;;;;5115040;27;20493;-73
2022/01/01 02:58:44;;;;;;;5.50;3.17;;;;;;;;;;5116823;27;20032;-73
2022/01/01 03:01:10;;;;;;;4.40;2.85;;;;;;;;;;5115069;27;20027;-73
2022/01/01 03:03:37;;;;;;;6.30;3.30;;;;;;;;;;5115458;27;20035;-73
2022/01/01 03:06:03;;;;;;;5.05;2.60;;;;;;;;;;5109409;28;20043;-73
2022/01/01 03:08:30;;;;;;;5.28;3.05;;;;;;;;;;5109467;28;20024;-73
2022/01/01 03:10:56;;;;;;;4.25;2.60;;;;;;;;;;5118136;27;20016;-73
2022/01/01 03:13:23;;;;;;;4.55;2.92;;;;;;;;;;5114980;27;20425;-74
2022/01/01 03:15:49;;;;;;;6.20;2.70;;;;;;;;;;5114964;27;20020;-73
2022/01/01 03:18:16;;;;;;;4.82;2.65;;;;;;;;;;5115061;27;20393;-73
2022/01/01 03:20:42;;;;;;;12.02;3.13;;;;;;;;;;5111148;27;20022;-73
2022/01/01 03:23:09;;;;;;;5.32;2.78;;;;;;;;;;5115885;27;20551;-73
2022/01/01 03:25:35;;;;;;;4.45;2.63;;;;;;;;;;5115608;27;20088;-73
2022/01/01 03:28:01;;;;;;;4.15;2.92;;;;;;;;;;5116082;27;20053;-73
2022/01/01 03:30:28;;;;;;;4.88;2.75;;;;;;;;;;5114776;27;20023;-73
2022/01/01 03:32:54;;;;;;;4.38;3.13;;;;;;;;;;5112872;27;20398;-73
2022/01/01 03:35:20;;;;;;;4.35;2.67;;;;;;;;;;5113631;27;20053;-73
2022/01/01 03:37:46;;;;;;;5.45;3.28;;;;;;;;;;5116137;27;20034;-73
2022/01/01 03:40:13;;;;;;;6.68;2.55;;;;;;;;;;5114447;27;20024;-73
2022/01/01 03:42:39;;;;;;;4.55;3.05;;;;;;;;;;5114238;27;20027;-73
2022/01/01 03:45:07;;;;;;;5.13;3.42;;;;;;;;;;5114243;27;20053;-73
2022/01/01 03:47:34;;;;;;;5.63;2.90;;;;;;;;;;5112721;27;20515;-73
2022/01/01 03:50:00;;;;;;;4.43;2.50;;;;;;;;;;5134046;27;20029;-73
2022/01/01 03:52:27;;;;;;;3.92;2.65;;;;;;;;;;5129559;27;20030;-73
2022/01/01 03:54:53;;;;;;;4.03;2.70;;;;;;;;;;5129940;27;20025;-73
2022/01/01 03:57:21;;;;;;;5.97;2.70;;;;;;;;;;5129491;27;20022;-73
2022/01/01 03:59:48;;;;;;;8.63;3.00;;;;;;;;;;5129660;27;20050;-73
2022/01/01 04:02:14;;;;;;;4.63;2.83;;;;;;;;;;5131904;27;20026;-73
2022/01/01 04:04:41;;;;;;;4.60;2.90;;;;;;;;;;5130359;27;20439;-73
2022/01/01 04:07:09;;;;;;;7.88;2.80;;;;;;;;;;5130656;27;20505;-73
2022/01/01 04:09:35;;;;;;;7.00;2.85;;;;;;;;;;5129641;27;20023;-72
2022/01/01 04:12:02;;;;;;;4.22;2.80;;;;;;;;;;5129862;27;20023;-73
2022/01/01 04:14:28;;;;;;;4.63;2.67;;;;;;;;;;5130395;27;20027;-73
2022/01/01 04:16:55;;;;;;;4.35;2.38;;;;;;;;;;5132250;27;20477;-73
2022/01/01 04:19:28;;;;;;;3.97;2.55;;;;;;;;;;5128885;27;20493;-72
2022/01/01 04:21:54;;;;;;;4.15;2.70;;;;;;;;;;5129102;27;20027;-73
2022/01/01 04:24:20;;;;;;;3.85;2.42;;;;;;;;;;5111226;27;20087;-73
2022/01/01 04:26:47;;;;;;;11.32;3.08;;;;;;;;;;5129274;27;20493;-73
2022/01/01 04:29:13;;;;;;;5.63;2.67;;;;;;;;;;5131448;27;20019;-73
2022/01/01 04:31:41;;;;;;;6.85;2.95;;;;;;;;;;5111644;27;20405;-73
2022/01/01 04:34:08;;;;;;;5.50;2.60;;;;;;;;;;5128520;27;20037;-73
2022/01/01 04:36:37;;;;;;;4.97;3.40;;;;;;;;;;5128857;27;20031;-73
2022/01/01 04:39:03;;;;;;;5.88;3.10;;;;;;;;;;5129333;27;20053;-73
2022/01/01 04:41:30;;;;;;;7.25;2.97;;;;;;;;;;5129511;27;20026;-73
2022/01/01 04:43:58;;;;;;;4.55;3.05;;;;;;;;;;5132396;27;20027;-73
2022/01/01 04:46:24;;;;;;;5.35;2.70;;;;;;;;;;5130409;27;20046;-73
2022/01/01 04:48:51;;;;;;;3.78;2.67;;;;;;;;;;5128622;27;20033;-73
2022/01/01 04:51:17;;;;;;;3.75;2.08;;;;;;;;;;5128947;27;20027;-73
2022/01/01 04:53:44;;;;;;;3.20;2.35;;;;;;;;;;5129568;28;20030;-73
2022/01/01 04:56:17;;;;;;;3.47;2.40;;;;;;;;;;5113431;28;20034;-73
2022/01/01 04:58:43;;;;;;;3.10;2.13;;;;;;;;;;5132290;28;20087;-72
2022/01/01 05:01:10;;;;;;;5.57;2.50;;;;;;;;;;5128711;28;20504;-73
2022/01/01 05:03:36;;;;;;;3.40;2.22;;;;;;;;;;5110813;28;20023;-72
2022/01/01 05:06:03;;;;;;;4.15;2.65;;;;;;;;;;5128864;28;20037;-73
2022/01/01 05:08:29;;;;;;;4.13;2.70;;;;;;;;;;5129960;28;20004;-73
2022/01/01 05:10:55;;;;;;;4.38;2.40;;;;;;;;;;5132328;28;20023;-73
2022/01/01 05:13:22;;;;;;;4.78;2.50;;;;;;;;;;5128697;27;20557;-72
2022/01/01 05:15:51;;;;;;;7.80;2.80;;;;;;;;;;5128773;28;20026;-73
2022/01/01 05:18:17;;;;;;;4.32;2.67;;;;;;;;;;5110326;28;20021;-73
2022/01/01 05:20:44;;;;;;;5.55;2.67;;;;;;;;;;5128818;28;20027;-73
2022/01/01 05:23:10;;;;;;;3.63;2.38;;;;;;;;;;5131393;28;20023;-73
2022/01/01 05:25:36;;;;;;;4.30;2.42;;;;;;;;;;5131063;28;20541;-73
2022/01/01 05:28:03;;;;;;;5.90;2.85;;;;;;;;;;5110477;28;20027;-73
2022/01/01 05:30:29;;;;;;;4.60;2.58;;;;;;;;;;5128666;27;20477;-73
2022/01/01 05:32:55;;;;;;;3.78;2.53;;;;;;;;;;5128698;28;20031;-73
2022/01/01 05:35:22;;;;;;;3.53;2.55;;;;;;;;;;5130577;28;20599;-73
2022/01/01 05:37:48;;;;;;;7.90;2.88;;;;;;;;;;5130317;28;20028;-73
2022/01/01 05:40:14;;;;;;;3.80;2.40;;;;;;;;;;5128551;28;20040;-73
2022/01/01 05:42:41;;;;;;;3.88;2.38;;;;;;;;;;5129681;27;20511;-73
2022/01/01 05:45:07;;;;;;;3.40;2.20;;;;;;;;;;5132441;27;20033;-73
2022/01/01 05:47:34;;;;;;;5.20;2.38;;;;;;;;;;5128122;27;20038;-73
2022/01/01 05:50:00;;;;;;;4.38;2.47;;;;;;;;;;5119989;27;20024;-73
2022/01/01 05:52:26;;;;;;;6.85;2.72;;;;;;;;;;5116368;27;20397;-73
2022/01/01 05:54:53;;;;;;;4.07;2.50;;;;;;;;;;5116306;27;20022;-73
2022/01/01 05:57:19;;;;;;;5.03;2.40;;;;;;;;;;5116330;27;20018;-73
2022/01/01 05:59:45;;;;;;;5.43;2.47;;;;;;;;;;5113648;27;20035;-73
2022/01/01 06:02:12;;;;;;;3.67;2.47;;;;;;;;;;5116970;27;20359;-73
2022/01/01 06:04:38;;;;;;;4.00;2.40;;;;;;;;;;5118753;27;20038;-73
2022/01/01 06:07:07;;;;;;;4.03;2.40;;;;;;;;;;5116206;27;20546;-73
2022/01/01 06:09:33;;;;;;;6.03;2.55;;;;;;;;;;5116713;27;20063;-73
2022/01/01 06:12:00;;;;;;;3.85;2.65;;;;;;;;;;5114933;27;20382;-73
2022/01/01 06:14:26;;;;;;;7.47;3.63;;;;;;;;;;5095516;28;20020;-73
2022/01/01 06:16:52;;;;;;;27.60;9.68;;;;;;;;;;5118165;27;20038;-72
2022/01/01 06:19:19;;;;;;;9.82;4.30;;;;;;;;;;5115803;27;20508;-73
2022/01/01 06:21:45;;;;;;;9.05;4.20;;;;;;;;;;5115797;27;20024;-73
2022/01/01 06:24:11;;;;;;;5.57;3.55;;;;;;;;;;5115818;27;20018;-73
2022/01/01 06:26:38;;;;;;;5.47;3.38;;;;;;;;;;5111632;28;20030;-72
2022/01/01 06:29:04;;;;;;;7.10;3.10;;;;;;;;;;5118818;27;20031;-73
2022/01/01 06:31:31;;;;;;;6.45;3.08;;;;;;;;;;5099033;28;20024;-73
2022/01/01 06:33:57;;;;;;;5.18;2.92;;;;;;;;;;5109924;28;20026;-73
2022/01/01 06:36:23;;;;;;;5.50;2.70;;;;;;;;;;5115884;27;20027;-73
2022/01/01 06:38:50;;;;;;;3.92;2.70;;;;;;;;;;5113248;27;20038;-73
2022/01/01 06:41:18;;;;;;;6.15;3.15;;;;;;;;;;5115268;27;20024;-73
2022/01/01 06:43:44;;;;;;;4.43;2.72;;;;;;;;;;5119089;27;20028;-73
2022/01/01 06:46:11;;;;;;;6.97;3.67;;;;;;;;;;5115007;27;20418;-73
2022/01/01 06:48:37;;;;;;;7.00;4.03;;;;;;;;;;5110448;28;20490;-73
2022/01/01 06:51:03;;;;;;;5.75;3.70;;;;;;;;;;5111199;28;20265;-73
2022/01/01 06:53:30;;;;;;;7.00;4.43;;;;;;;;;;5111207;28;20030;-73
2022/01/01 06:55:56;;;;;;;10.82;6.40;;;;;;;;;;5113262;28;20019;-73
2022/01/01 06:58:23;;;;;;;8.93;5.70;;;;;;;;;;5110566;28;20385;-73
2022/01/01 07:00:49;;;;;;;9.13;5.95;;;;;;;;;;5109838;28;20474;-73
2022/01/01 07:03:21;;;;;;;11.90;6.68;;;;;;;;;;5110343;28;20034;-73
2022/01/01 07:05:48;;;;;;;36.67;14.38;;;;;;;;;;5110448;28;20478;-73
2022/01/01 07:08:14;;;;;;;23.23;10.82;;;;;;;;;;5112783;28;20546;-73
2022/01/01 07:10:44;;;;;;;39.47;20.02;;;;;;;;;;5111408;28;20028;-73
2022/01/01 07:13:11;;;;;;;46.88;20.15;;;;;;;;;;5110284;28;20024;-73
2022/01/01 07:15:37;;;;;;;43.15;23.15;;;;;;;;;;5110010;28;20024;-72
2022/01/01 07:18:03;;;;;;;33.90;16.08;;;;;;;;;;5110405;28;20028;-73
2022/01/01 07:20:30;;;;;;;15.15;8.43;;;;;;;;;;5111645;28;20027;-72
2022/01/01 07:22:58;;;;;;;13.20;5.75;;;;;;;;;;5113676;28;20389;-72
2022/01/01 07:25:25;;;;;;;12.82;7.13;;;;;;;;;;5110071;28;20046;-73
2022/01/01 07:27:51;;;;;;;19.10;10.05;;;;;;;;;;5109699;28;20026;-73
2022/01/01 07:30:18;;;;;;;21.27;11.02;;;;;;;;;;5110234;28;20032;-73
2022/01/01 07:32:45;;;;;;;27.30;13.35;;;;;;;;;;5110315;28;20036;-73
2022/01/01 07:35:12;;;;;;;32.20;12.85;;;;;;;;;;5112419;28;20026;-73
2022/01/01 07:37:39;;;;;;;35.65;17.55;;;;;;;;;;5111158;28;20026;-73
2022/01/01 07:40:06;;;;;;;27.65;12.45;;;;;;;;;;5109659;28;20030;-73
2022/01/01 07:42:33;;;;;;;15.00;7.88;;;;;;;;;;5109470;28;20408;-73
2022/01/01 07:44:59;;;;;;;14.93;7.43;;;;;;;;;;5109839;28;20024;-73
2022/01/01 07:47:26;;;;;;;21.10;7.78;;;;;;;;;;5125971;27;20054;-73
2022/01/01 07:49:53;;;;;;;20.15;8.65;;;;;;;;;;5116594;27;20020;-73
2022/01/01 07:52:19;;;;;;;19.08;9.25;;;;;;;;;;5114317;27;20443;-73
2022/01/01 07:54:45;;;;;;;24.05;9.63;;;;;;;;;;5114486;27;20019;-73
2022/01/01 07:57:12;;;;;;;30.73;12.07;;;;;;;;;;5114073;27;20075;-73
2022/01/01 07:59:38;;;;;;;26.60;12.63;;;;;;;;;;5111506;28;20024;-73
2022/01/01 08:02:04;;;;;;;30.00;12.75;;;;;;;;;;5117089;27;20027;-73
2022/01/01 08:04:31;;;;;;;46.25;20.60;;;;;;;;;;5114445;27;20038;-72
2022/01/01 08:06:57;;;;;;;46.15;22.02;;;;;;;;;;5113322;27;20508;-73
2022/01/01 08:09:23;;;;;;;23.35;9.48;;;;;;;;;;5114218;27;20023;-72
2022/01/01 08:11:54;;;;;;;19.08;8.68;;;;;;;;;;5111020;27;20020;-72
2022/01/01 08:14:21;;;;;;;25.83;12.45;;;;;;;;;;5113353;27;20026;-73
2022/01/01 08:17:04;;;;;;;19.42;9.13;;;;;;;;;;5096963;28;20046;-73
2022/01/01 08:19:30;;;;;;;18.98;8.88;;;;;;;;;;5113867;27;20038;-73
2022/01/01 08:21:57;;;;;;;13.43;7.47;;;;;;;;;;5107473;28;20016;-72
2022/01/01 08:24:24;;;;;;;15.52;8.30;;;;;;;;;;5113491;27;20180;-73
2022/01/01 08:26:50;;;;;;;9.18;6.03;;;;;;;;;;5110970;27;20034;-73
2022/01/01 08:29:17;;;;;;;7.22;4.00;;;;;;;;;;5113666;27;20027;-73
2022/01/01 08:31:44;;;;;;;6.93;3.80;;;;;;;;;;5114753;27;20031;-73
2022/01/01 08:34:10;;;;;;;8.23;4.55;;;;;;;;;;5113486;27;20020;-73
2022/01/01 08:36:36;;;;;;;11.23;6.88;;;;;;;;;;5095614;28;20029;-73
2022/01/01 08:39:05;;;;;;;12.00;7.13;;;;;;;;;;5114363;27;20017;-73
2022/01/01 08:41:32;;;;;;;9.27;6.28;;;;;;;;;;5109330;28;20012;-73
2022/01/01 08:43:58;;;;;;;8.50;5.30;;;;;;;;;;5116295;27;20024;-74
2022/01/01 08:46:25;;;;;;;9.10;5.30;;;;;;;;;;5122602;27;20096;-73
2022/01/01 08:48:51;;;;;;;7.90;4.57;;;;;;;;;;5128935;27;20056;-73
2022/01/01 08:51:18;;;;;;;6.03;3.60;;;;;;;;;;5128670;27;20023;-73
2022/01/01 08:53:46;;;;;;;5.43;2.50;;;;;;;;;;5129000;27;20093;-73
2022/01/01 08:56:12;;;;;;;4.32;3.00;;;;;;;;;;5130992;28;20072;-73
2022/01/01 08:58:39;;;;;;;4.63;2.90;;;;;;;;;;5130066;28;20522;-73
2022/01/01 09:01:06;;;;;;;5.22;3.22;;;;;;;;;;5128575;28;20029;-73
2022/01/01 09:03:37;;;;;;;4.97;3.47;;;;;;;;;;5128625;28;20023;-73
2022/01/01 09:06:04;;;;;;;3.80;2.80;;;;;;;;;;5128771;28;20033;-73
2022/01/01 09:08:31;;;;;;;4.40;3.33;;;;;;;;;;5129937;28;20026;-73
2022/01/01 09:10:57;;;;;;;4.13;2.95;;;;;;;;;;5131733;28;20092;-73
2022/01/01 09:13:24;;;;;;;4.82;2.42;;;;;;;;;;5128711;28;20033;-73
2022/01/01 09:15:50;;;;;;;3.22;2.40;;;;;;;;;;5128232;28;20023;-73
2022/01/01 09:18:17;;;;;;;2.75;1.60;;;;;;;;;;5132732;27;20023;-73
2022/01/01 09:20:43;;;;;;;1.80;1.65;;;;;;;;;;5133186;27;20389;-73
2022/01/01 09:23:09;;;;;;;3.25;2.17;;;;;;;;;;5117605;27;20024;-73
2022/01/01 09:25:36;;;;;;;2.35;2.00;;;;;;;;;;5133401;27;20037;-73
2022/01/01 09:28:02;;;;;;;5.63;2.83;;;;;;;;;;5132874;27;20019;-73
2022/01/01 09:30:29;;;;;;;4.28;3.65;;;;;;;;;;5132229;27;20035;-73
2022/01/01 09:32:55;;;;;;;2.70;2.13;;;;;;;;;;5133050;27;20022;-73
2022/01/01 09:35:21;;;;;;;4.43;2.85;;;;;;;;;;5134598;27;20392;-73
2022/01/01 09:37:48;;;;;;;3.15;2.20;;;;;;;;;;5134287;27;20019;-73
2022/01/01 09:40:14;;;;;;;4.78;2.67;;;;;;;;;;5132403;27;20041;-73
2022/01/01 09:42:40;;;;;;;4.75;2.97;;;;;;;;;;5132543;27;20021;-73
2022/01/01 09:45:07;;;;;;;3.58;2.85;;;;;;;;;;5132484;27;20043;-73
2022/01/01 09:47:34;;;;;;;2.95;2.53;;;;;;;;;;5116339;27;20519;-73
2022/01/01 09:50:00;;;;;;;2.80;2.20;;;;;;;;;;5135724;27;20027;-74
2022/01/01 09:52:27;;;;;;;3.20;2.70;;;;;;;;;;5132410;27;20022;-73
2022/01/01 09:54:53;;;;;;;5.30;4.00;;;;;;;;;;5131263;27;20079;-73
2022/01/01 09:57:20;;;;;;;3.63;2.83;;;;;;;;;;5133539;27;20027;-73
2022/01/01 09:59:46;;;;;;;4.60;2.00;;;;;;;;;;5132415;27;20470;-73
2022/01/01 10:02:13;;;;;;;1.92;1.73;;;;;;;;;;5134621;27;20034;-73
2022/01/01 10:04:45;;;;;;;3.13;2.40;;;;;;;;;;5133160;27;20027;-73
2022/01/01 10:07:12;;;;;;;3.95;2.30;;;;;;;;;;5131480;27;20028;-73
2022/01/01 10:09:39;;;;;;;2.10;1.90;;;;;;;;;;5131885;27;20022;-73
2022/01/01 10:12:06;;;;;;;7.22;2.10;;;;;;;;;;5131943;27;20041;-73
2022/01/01 10:14:45;;;;;;;3.15;2.15;;;;;;;;;;5132474;27;20027;-73
2022/01/01 10:17:21;;;;;;;4.30;2.20;;;;;;;;;;5131477;27;20026;-73
2022/01/01 10:19:48;;;;;;;4.20;2.10;;;;;;;;;;5133276;27;20019;-73
2022/01/01 10:22:19;;;;;;;3.20;2.10;;;;;;;;;;5131347;27;20041;-73
2022/01/01 10:27:47;;;;;;;2.22;2.00;;;;;;;;;;5131535;27;20035;-72
2022/01/01 10:30:29;;;;;;;2.20;1.67;;;;;;;;;;5130122;27;20023;-72
2022/01/01 10:33:03;;;;;;;2.75;1.67;;;;;;;;;;5131727;27;20490;-73
2022/01/01 10:35:33;;;;;;;1.88;1.50;;;;;;;;;;5132992;27;20056;-72
2022/01/01 10:38:00;;;;;;;2.40;1.75;;;;;;;;;;5135071;27;20027;-72
2022/01/01 10:40:27;;;;;;;3.50;1.52;;;;;;;;;;5131541;27;20027;-73
2022/01/01 10:42:53;;;;;;;3.85;1.80;;;;;;;;;;5131265;27;20029;-72
2022/01/01 10:45:34;;;;;;;2.83;1.60;;;;;;;;;;5131081;27;20037;-71
2022/01/01 10:48:16;;;;;;;6.70;2.00;;;;;;;;;;5131145;27;20027;-73
2022/01/01 10:50:43;;;;;;;1.98;1.75;;;;;;;;;;5098484;27;20043;-72
2022/01/01 10:53:10;;;;;;;2.00;1.80;;;;;;;;;;5116077;27;20026;-73
2022/01/01 10:55:40;;;;;;;2.95;1.92;;;;;;;;;;5132109;27;20023;-72
2022/01/01 10:58:06;;;;;;;3.10;1.70;;;;;;;;;;5131163;27;20035;-73
2022/01/01 11:00:39;;;;;;;4.80;1.83;;;;;;;;;;5130979;27;20023;-72
2022/01/01 11:03:08;;;;;;;2.35;1.67;;;;;;;;;;5131274;27;20388;-72
2022/01/01 11:05:35;;;;;;;2.67;2.03;;;;;;;;;;5114851;27;20037;-73
2022/01/01 11:08:03;;;;;;;4.25;2.03;;;;;;;;;;5130297;27;20019;-72
2022/01/01 11:10:30;;;;;;;4.10;2.42;;;;;;;;;;5130018;27;20023;-72
2022/01/01 11:12:57;;;;;;;2.40;2.20;;;;;;;;;;5130542;27;20014;-72
2022/01/01 11:15:24;;;;;;;2.65;2.10;;;;;;;;;;5131770;27;20040;-73
2022/01/01 11:17:50;;;;;;;3.25;2.17;;;;;;;;;;5131120;27;20030;-72
2022/01/01 11:20:17;;;;;;;2.28;2.08;;;;;;;;;;5132473;27;20023;-72
2022/01/01 11:22:44;;;;;;;4.07;2.35;;;;;;;;;;5131388;27;20035;-73
2022/01/01 11:25:10;;;;;;;3.83;1.90;;;;;;;;;;5130280;27;20609;-73
2022/01/01 11:27:37;;;;;;;3.10;1.67;;;;;;;;;;5130492;27;20045;-72
2022/01/01 11:30:05;;;;;;;1.80;1.70;;;;;;;;;;5130381;27;20511;-72
2022/01/01 11:32:34;;;;;;;3.05;1.63;;;;;;;;;;5112742;27;20023;-73
2022/01/01 11:35:01;;;;;;;2.25;1.80;;;;;;;;;;5133484;27;20022;-72
2022/01/01 11:37:43;;;;;;;2.85;1.52;;;;;;;;;;5130285;27;20481;-72
2022/01/01 11:40:10;;;;;;;5.47;1.70;;;;;;;;;;5129761;27;20023;-72
2022/01/01 11:42:43;;;;;;;4.55;1.83;;;;;;;;;;5130381;27;20035;-72
2022/01/01 11:45:10;;;;;;;2.28;1.65;;;;;;;;;;5129996;27;20038;-73
2022/01/01 11:47:36;;;;;;;2.88;1.95;;;;;;;;;;5112540;27;20037;-72
2022/01/01 11:50:05;;;;;;;4.20;2.08;;;;;;;;;;5133623;27;20027;-72
2022/01/01 11:52:41;;;;;;;4.97;2.33;;;;;;;;;;5129862;27;20027;-73
2022/01/01 11:55:12;;;;;;;5.10;2.40;;;;;;;;;;5131123;27;20485;-72
2022/01/01 11:57:39;;;;;;;2.90;2.40;;;;;;;;;;5130073;27;20022;-72
2022/01/01 12:00:14;;;;;;;3.40;2.40;;;;;;;;;;5130229;27;20061;-72
2022/01/01 12:02:43;;;;;;;2.78;2.10;;;;;;;;;;5114576;27;22817;-72
2022/01/01 12:05:20;;;;;;;2.45;2.00;;;;;;;;;;5132039;27;20031;-72
2022/01/01 12:07:54;;;;;;;3.13;2.10;;;;;;;;;;5133169;27;20031;-72
2022/01/01 12:10:30;;;;;;;2.58;2.10;;;;;;;;;;5129580;27;20030;-73
2022/01/01 12:12:58;;;;;;;2.38;2.00;;;;;;;;;;5129772;27;20427;-72
2022/01/01 12:15:24;;;;;;;5.30;2.20;;;;;;;;;;5129346;27;20039;-72
2022/01/01 12:17:56;;;;;;;2.40;1.90;;;;;;;;;;5129063;27;20019;-73
2022/01/01 12:20:24;;;;;;;5.28;2.50;;;;;;;;;;5131469;27;20026;-73
2022/01/01 12:22:51;;;;;;;2.55;2.15;;;;;;;;;;5131112;27;20019;-71
2022/01/01 12:25:18;;;;;;;3.95;1.77;;;;;;;;;;5128823;27;20091;-73
2022/01/01 12:27:47;;;;;;;2.35;1.67;;;;;;;;;;5129120;27;20031;-72
2022/01/01 12:30:29;;;;;;;4.10;2.25;;;;;;;;;;5129135;27;20031;-72
2022/01/01 12:32:56;;;;;;;2.47;2.10;;;;;;;;;;5130230;27;20030;-72
2022/01/01 12:35:31;;;;;;;4.22;2.28;;;;;;;;;;5131538;27;20030;-72
2022/01/01 12:38:06;;;;;;;6.70;2.42;;;;;;;;;;5131920;27;20020;-72
2022/01/01 12:40:32;;;;;;;2.45;2.05;;;;;;;;;;5130721;27;20023;-72
2022/01/01 12:43:07;;;;;;;2.25;2.05;;;;;;;;;;5110445;27;20026;-72
2022/01/01 12:45:34;;;;;;;3.28;2.65;;;;;;;;;;5128943;27;20027;-72
2022/01/01 12:48:02;;;;;;;2.78;2.15;;;;;;;;;;5128635;27;20408;-72
2022/01/01 12:50:29;;;;;;;3.90;2.15;;;;;;;;;;5111719;28;20024;-72
2022/01/01 12:52:57;;;;;;;4.97;2.38;;;;;;;;;;5131038;27;20035;-72
2022/01/01 12:55:26;;;;;;;2.28;2.08;;;;;;;;;;5110748;27;20033;-72
2022/01/01 12:58:09;;;;;;;3.55;2.90;;;;;;;;;;5110494;28;20031;-72
2022/01/01 13:00:38;;;;;;;2.60;2.25;;;;;;;;;;5128498;28;20019;-72
2022/01/01 13:03:07;;;;;;;3.63;2.80;;;;;;;;;;5128523;28;20027;-72
2022/01/01 13:05:34;;;;;;;3.83;2.70;;;;;;;;;;5129259;28;20035;-72
2022/01/01 13:08:04;;;;;;;3.42;2.63;;;;;;;;;;5132262;28;20024;-73
2022/01/01 13:10:33;;;;;;;5.15;3.00;;;;;;;;;;5128677;28;20037;-73
2022/01/01 13:13:00;;;;;;;3.13;2.53;;;;;;;;;;5129961;28;20019;-72
2022/01/01 13:15:26;;;;;;;3.97;2.88;;;;;;;;;;5128269;28;20076;-72
2022/01/01 13:17:52;;;;;;;3.13;2.30;;;;;;;;;;5128716;28;20032;-72
2022/01/01 13:20:19;;;;;;;4.50;3.22;;;;;;;;;;5131074;28;20027;-72
2022/01/01 13:22:45;;;;;;;3.53;2.78;;;;;;;;;;5130110;28;20026;-73
2022/01/01 13:25:11;;;;;;;3.63;2.58;;;;;;;;;;5128218;28;20558;-72
2022/01/01 13:27:39;;;;;;;5.40;3.42;;;;;;;;;;5110257;28;20023;-72
2022/01/01 13:30:05;;;;;;;6.47;2.97;;;;;;;;;;5128358;28;20107;-73
2022/01/01 13:32:32;;;;;;;4.90;3.20;;;;;;;;;;5129140;28;20024;-72
2022/01/01 13:35:01;;;;;;;3.67;2.80;;;;;;;;;;5113542;28;20030;-72
2022/01/01 13:37:27;;;;;;;2.80;2.60;;;;;;;;;;5128748;28;20065;-72
2022/01/01 13:39:56;;;;;;;5.63;2.80;;;;;;;;;;5128325;28;20053;-73
2022/01/01 13:42:22;;;;;;;2.97;2.35;;;;;;;;;;5128608;28;20016;-72
2022/01/01 13:44:49;;;;;;;5.93;2.70;;;;;;;;;;5128209;28;20034;-72
2022/01/01 13:47:18;;;;;;;4.45;2.60;;;;;;;;;;5130664;28;20051;-73
2022/01/01 13:49:52;;;;;;;3.70;2.55;;;;;;;;;;5129646;28;20412;-72
2022/01/01 13:52:19;;;;;;;3.40;2.50;;;;;;;;;;5130114;28;20045;-73
2022/01/01 13:54:46;;;;;;;3.97;2.63;;;;;;;;;;5128512;28;20026;-72
2022/01/01 13:57:12;;;;;;;3.58;2.60;;;;;;;;;;5128831;27;20054;-72
2022/01/01 13:59:40;;;;;;;3.40;2.70;;;;;;;;;;5128562;28;20023;-72
2022/01/01 14:02:13;;;;;;;4.13;2.97;;;;;;;;;;5131900;28;20049;-72
2022/01/01 14:04:40;;;;;;;4.13;3.13;;;;;;;;;;5134189;27;20064;-72
2022/01/01 14:07:08;;;;;;;3.88;2.67;;;;;;;;;;5132080;27;20404;-73
2022/01/01 14:09:35;;;;;;;3.50;2.90;;;;;;;;;;5132174;27;20494;-72
2022/01/01 14:12:03;;;;;;;3.80;2.90;;;;;;;;;;5132136;27;20019;-72
2022/01/01 14:14:30;;;;;;;4.70;3.10;;;;;;;;;;5133013;27;20031;-72
2022/01/01 14:16:56;;;;;;;3.97;2.80;;;;;;;;;;5134762;27;20015;-72
2022/01/01 14:19:23;;;;;;;3.20;2.90;;;;;;;;;;5131841;27;20174;-72
2022/01/01 14:21:51;;;;;;;3.22;2.40;;;;;;;;;;5132133;27;20021;-72
2022/01/01 14:24:21;;;;;;;3.22;2.45;;;;;;;;;;5116318;27;20029;-72
2022/01/01 14:26:52;;;;;;;3.70;2.83;;;;;;;;;;5131952;27;20509;-71
2022/01/01 14:29:22;;;;;;;3.10;2.50;;;;;;;;;;5133410;27;20023;-72
2022/01/01 14:31:49;;;;;;;3.97;3.08;;;;;;;;;;5133270;27;20030;-72
2022/01/01 14:34:16;;;;;;;3.60;2.75;;;;;;;;;;5131775;27;20485;-70
2022/01/01 14:36:46;;;;;;;4.60;2.75;;;;;;;;;;5131902;27;20489;-71
2022/01/01 14:39:14;;;;;;;5.32;3.08;;;;;;;;;;5131710;27;20030;-72
2022/01/01 14:41:40;;;;;;;4.82;3.22;;;;;;;;;;5131902;27;20019;-73
2022/01/01 14:44:07;;;;;;;6.85;3.58;;;;;;;;;;5134648;27;20393;-72
2022/01/01 14:46:36;;;;;;;5.82;3.85;;;;;;;;;;5114814;27;20047;-72
2022/01/01 14:49:03;;;;;;;7.53;3.58;;;;;;;;;;5119458;27;20016;-72
2022/01/01 14:51:49;;;;;;;5.18;3.55;;;;;;;;;;5115457;27;20031;-72